Blissfield, Michigan
Current Conditions -  °F | °C
As of 7:53 PM on Monday 20 Oct 2014 (Local Time) from KADG Reporting Station
Light Rain Light Rain  
Wind Chill: 51°   Ceiling: 5500
Heat Index: 51°   Visibility: 6mi
Dew Point: 49°   Wind: 3mph
Humidity: 92%   Direction: 270°W
Pressure: 29.86"   Gusts: NA
Location:  41.83°N, 83.86°W
Report Text: KADG 202353Z AUTO 27003KT 6SM -RA BR FEW045 OVC055 11/09 A2986 RMK AO2 RAB51 SLP115 P0000 60000 T01060094 10117 20106 53011
Loading
Personal Weather Stations






























Interactive Weather Map
Tropical Storm Tracking
New forecast layout! Learn more

10-Day Weather Forecast

Advertisements
Track Severe Weather on mobile